Saltar para o conteúdo principal

Montemor-O-Novo

ID 1210846 · 38.6451, -8.1991 mapa

Última leitura · 2026-05-09 19:00 (Europe/Lisbon)

Temperatura
16.4 °C
Humidade
74 %
Pressão
1,009.0 hPa
Precipitação
0.0 mm
Radiação
Velocidade do vento
13.3 km/h
Direcção do vento
SW · Sudoeste

Histórico de 24 horas

Hora (Europe/Lisbon) Temperatura Humidade Pressão Chuva Vento Direcção
2026-05-09 19:00 16.4 °C 74 % 1,009.0 0.0 mm 13.3 km/h SW
2026-05-09 18:00 16.0 °C 80 % 1,008.4 0.9 mm 17.6 km/h SW
2026-05-09 17:00 17.4 °C 68 % 1,007.5 0.0 mm 17.3 km/h SW
2026-05-09 16:00 18.4 °C 62 % 1,007.3 0.1 mm 13.3 km/h S
2026-05-09 15:00 18.4 °C 58 % 1,007.3 0.0 mm 15.1 km/h SW
2026-05-09 14:00 18.5 °C 57 % 1,007.0 0.0 mm 12.6 km/h SW
2026-05-09 13:00 17.7 °C 68 % 1,006.6 0.0 mm 18.0 km/h SW
2026-05-09 12:00 16.3 °C 76 % 1,006.1 0.0 mm 13.0 km/h SW
2026-05-09 11:00 15.2 °C 92 % 1,005.3 0.0 mm 10.1 km/h SW
2026-05-09 10:00 13.5 °C 99 % 1,005.1 0.3 mm 6.5 km/h S
2026-05-09 09:00 12.7 °C 99 % 1,005.4 0.0 mm 7.9 km/h SE
2026-05-09 08:00 12.2 °C 99 % 1,005.6 2.5 mm 8.6 km/h S
2026-05-09 07:00 12.2 °C 96 % 1,005.4 2.9 mm 11.9 km/h SE
2026-05-09 06:00 12.6 °C 95 % 1,005.5 0.0 mm 13.3 km/h SE
2026-05-09 05:00 12.8 °C 96 % 1,006.1 0.0 mm 14.8 km/h SE
2026-05-09 04:00 12.3 °C 97 % 1,006.5 0.4 mm 13.7 km/h SE
2026-05-09 03:00 12.6 °C 94 % 1,007.2 0.1 mm 14.0 km/h S
2026-05-09 02:00 12.4 °C 94 % 1,008.0 0.0 mm 10.1 km/h SE
2026-05-09 01:00 12.1 °C 93 % 1,008.4 0.0 mm 14.4 km/h SE
2026-05-09 00:00 12.7 °C 93 % 1,008.7 0.3 mm 16.2 km/h SE
2026-05-08 23:00 13.0 °C 93 % 1,009.1 0.5 mm 20.5 km/h SE
2026-05-08 22:00 13.1 °C 94 % 1,009.3 1.0 mm 8.6 km/h S
2026-05-08 21:00 13.8 °C 94 % 1,008.7 0.2 mm 8.3 km/h S
2026-05-08 20:00 14.3 °C 94 % 1,008.6 0.0 mm 3.2 km/h S